Terminal Aerodrome Forecast
Issued by NWS

Home | Current Version | Previous Version | Text Only | Print | Product List | Glossary On
Versions: 1 2 3 4 5 6 7 8 9 10 11 12 13 14 15 16 17 18
000
FTUS46 KMTR 171100
TAFOAK
TAF
KOAK 171139Z 1712/1818 VRB04KT P6SM OVC012
     FM171600 VRB04KT P6SM SCT012
     FM172000 26012KT P6SM FEW012 SCT100
     FM180300 26009KT P6SM FEW012 BKN100
     FM180600 23015KT P6SM OVC050 PROB30 1806/1808 P6SM -SHRA OVC025
     FM180800 23015KT P6SM -SHRA OVC025
     FM181100 21011KT P6SM -SHRA BKN025=

USA.gov is the U.S. government's official web portal to all federal, state and local government web resources and services.